Latest Weather Observations for Ulladulla

IDN60901

Issued at 6:21 pm EST Thursday 30 July 2015 (issued every 10 minutes, with the page automatically refreshed every 10 minutes)

About weather observations | Map of Canberra area stations | Latest observations for Canberra area | Other Formats
Station Details ID: 069138 Name: ULLADULLA AWS Lat: -35.36 Lon: 150.48 Height: 35.7 m
Data from the previous 72 hours. | See also: Recent months at Ulladulla
Date/Time
EST
Tmp

°C
App
Tmp
°C
Dew
Point
°C
Rel
Hum
%
Delta-T

°C
Wind Press
QNH
hPa
Press
MSL
hPa
Rain
since
9 am
mm
Dir
 
Spd
km/h
Gust
km/h
Spd
kts
Gust
kts
30/06:00pm 14.9 9.9 -1.2 33 6.6 NW 15 33 8 18 1016.7 1016.7 0.0
30/05:30pm 15.1 10.4 -1.9 31 6.9 NW 13 28 7 15 1016.6 1016.6 0.0
30/05:00pm 15.3 10.6 -1.7 31 6.9 NW 13 24 7 13 1016.3 1016.3 0.0
30/04:30pm 15.2 11.8 -0.9 33 6.7 NW 7 15 4 8 1016.4 1016.4 0.0
30/04:00pm 15.9 11.5 0.1 34 6.7 NW 13 30 7 16 1016.4 1016.4 0.0
30/03:30pm 16.7 15.6 5.0 46 5.6 CALM 0 2 0 1 1016.9 1016.9 0.0
30/03:00pm 16.7 13.9 2.0 37 6.6 NW 6 15 3 8 1017.6 1017.6 0.0
30/02:30pm 17.5 15.2 2.7 37 6.8 SSE 4 7 2 4 1017.7 1017.7 0.0
30/02:00pm 18.3 14.9 1.8 33 7.4 NW 9 17 5 9 1018.3 1018.3 0.0
30/01:30pm 17.9 14.0 1.4 33 7.4 N 11 19 6 10 1018.8 1018.8 0.0
30/01:00pm 17.0 12.4 1.8 36 6.8 NW 15 22 8 12 1019.3 1019.3 0.0
30/12:30pm 17.8 13.2 1.7 34 7.2 NW 15 26 8 14 1019.8 1019.8 0.0
30/12:00pm 17.7 13.6 2.1 35 7.0 WNW 13 22 7 12 1020.4 1020.4 0.0
30/11:30am 16.9 12.8 2.5 38 6.5 NW 13 22 7 12 1020.7 1020.7 0.0
30/11:00am 16.0 12.6 2.1 39 6.2 NW 9 17 5 9 1021.3 1021.4 0.0
30/10:30am 15.3 12.4 4.7 49 4.9 NNW 9 17 5 9 1022.2 1022.3 0.0
30/10:00am 14.2 10.8 6.1 58 3.9 N 13 22 7 12 1022.8 1022.9 0.0
30/09:30am 12.7 9.6 5.6 62 3.3 N 11 19 6 10 1023.2 1023.3 0.0
30/09:00am 12.4 9.3 5.6 63 3.2 N 11 20 6 11 1023.8 1023.9 0.0
30/08:30am 11.5 8.0 5.4 66 2.8 N 13 22 7 12 1024.1 1024.2 0.0
30/08:00am 10.6 8.3 5.6 71 2.3 NNW 7 11 4 6 1024.4 1024.5 0.0
30/07:30am 9.7 6.8 4.7 71 2.2 N 9 17 5 9 1024.4 1024.5 0.0
30/07:00am 9.2 6.3 4.8 74 2.0 N 9 13 5 7 1024.2 1024.3 0.0
30/06:30am 9.6 7.0 4.4 70 2.3 NNW 7 9 4 5 1024.3 1024.4 0.0
30/06:00am 9.8 6.9 4.8 71 2.2 NNW 9 13 5 7 1024.5 1024.6 0.0
30/05:30am 10.7 8.0 5.7 71 2.3 N 9 17 5 9 1024.4 1024.5 0.0
30/05:00am 9.7 7.6 5.7 76 1.8 NNW 6 11 3 6 1024.6 1024.7 0.0
30/04:30am 10.8 7.8 5.8 71 2.3 N 11 15 6 8 1025.0 1025.1 0.0
30/04:00am 9.5 7.3 5.5 76 1.8 NNW 6 9 3 5 1025.1 1025.2 0.0
30/03:30am 9.9 7.0 4.9 71 2.3 NNW 9 17 5 9 1025.5 1025.6 0.0
30/03:00am 9.1 6.3 3.3 67 2.5 NNW 7 15 4 8 1025.5 1025.6 0.0
30/02:30am 9.0 6.5 4.0 71 2.2 N 6 9 3 5 1026.3 1026.3 0.0
30/02:00am 9.0 6.5 3.6 69 2.3 NNW 6 11 3 6 1026.8 1026.8 0.0
30/01:30am 8.8 6.4 4.2 73 2.0 NNW 6 9 3 5 1027.0 1027.0 0.0
30/01:00am 10.2 8.3 6.5 78 1.7 NNW 6 13 3 7 1027.2 1027.2 0.0
30/12:30am 10.2 8.0 6.0 75 1.9 N 7 11 4 6 1027.9 1027.9 0.0
30/12:00am 9.8 8.1 5.8 76 1.8 N 4 6 2 3 1028.4 1028.4 0.0
 
Date/Time
EST
Tmp

°C
App
Tmp
°C
Dew
Point
°C
Rel
Hum
%
Delta-T

°C
Wind Press
QNH
hPa
Press
MSL
hPa
Rain
since
9 am
mm
Dir
 
Spd
km/h
Gust
km/h
Spd
kts
Gust
kts
29/11:30pm 9.4 7.3 5.9 79 1.6 N 6 7 3 4 1028.6 1028.6 0.0
29/11:00pm 9.9 8.0 6.6 80 1.5 NNW 6 9 3 5 1028.6 1028.6 0.0
29/10:30pm 10.4 8.5 6.7 78 1.7 NNW 6 7 3 4 1028.6 1028.6 0.0
29/10:00pm 11.3 9.0 7.6 78 1.8 N 9 13 5 7 1028.9 1028.9 0.0
29/09:30pm 11.2 9.3 7.5 78 1.8 NNW 7 11 4 6 1029.4 1029.4 0.0
29/09:00pm 11.1 8.7 7.2 77 1.9 NNW 9 13 5 7 1029.7 1029.7 0.0
29/08:30pm 10.7 8.3 7.0 78 1.8 NNW 9 15 5 8 1029.9 1029.9 0.0
29/08:00pm 11.1 9.1 7.0 76 1.9 NNW 7 11 4 6 1029.7 1029.7 0.0
29/07:30pm 11.7 10.1 7.8 77 1.9 N 6 9 3 5 1029.6 1029.6 0.0
29/07:00pm 12.1 9.9 7.8 75 2.1 N 9 13 5 7 1029.8 1029.8 0.0
29/06:30pm 12.8 10.3 8.1 73 2.3 N 11 17 6 9 1029.9 1029.9 0.0
29/06:00pm 13.2 10.8 8.5 73 2.3 N 11 20 6 11 1029.5 1029.5 0.0
29/05:30pm 13.4 10.9 8.0 70 2.7 N 11 20 6 11 1029.3 1029.3 0.0
29/05:00pm 13.6 10.3 8.2 70 2.7 NE 15 20 8 11 1029.1 1029.1 0.0
29/04:30pm 13.6 11.4 8.0 69 2.8 NE 9 15 5 8 1029.4 1029.4 0.0
29/04:00pm 13.9 11.7 7.7 66 3.0 NE 9 13 5 7 1029.5 1029.5 0.0
29/03:30pm 14.3 12.0 7.4 63 3.4 ENE 9 15 5 8 1029.4 1029.4 0.0
29/03:00pm 14.6 12.4 7.9 64 3.3 ENE 9 15 5 8 1029.6 1029.6 0.0
29/02:30pm 14.7 12.4 7.3 61 3.6 NE 9 13 5 7 1029.9 1029.9 0.0
29/02:00pm 14.6 12.1 6.7 59 3.8 ENE 9 13 5 7 1030.3 1030.3 0.0
29/01:30pm 14.6 12.1 6.4 58 4.0 ENE 9 13 5 7 1030.8 1030.8 0.0
29/01:00pm 14.7 12.4 5.5 54 4.3 ENE 7 11 4 6 1031.5 1031.5 0.0
29/12:30pm 15.0 12.8 6.0 55 4.3 E 7 11 4 6 1031.9 1031.9 0.0
29/12:00pm 15.1 12.8 5.0 51 4.7 E 6 9 3 5 1032.5 1032.5 0.0
29/11:30am 15.3 13.1 5.2 51 4.8 ESE 6 9 3 5 1033.2 1033.2 0.0
29/11:00am 14.7 12.2 3.8 48 4.9 ESE 6 7 3 4 1033.8 1033.8 0.0
29/10:30am 15.1 13.3 5.6 53 4.5 SE 4 6 2 3 1034.3 1034.3 0.0
29/10:00am 14.7 13.1 4.4 50 4.7 WSW 2 4 1 2 1034.6 1034.6 0.0
29/09:30am 14.3 12.5 3.7 49 4.8 W 2 6 1 3 1034.5 1034.5 0.0
29/09:00am 14.1 12.3 5.5 56 4.0 NW 4 6 2 3 1034.6 1034.6 0.0
29/08:30am 13.2 11.5 6.1 62 3.4 NW 4 6 2 3 1034.4 1034.4 0.0
29/08:00am 11.9 10.2 6.0 67 2.7 WNW 4 6 2 3 1034.5 1034.5 0.0
29/07:30am 9.8 8.0 5.6 75 1.9 WNW 4 6 2 3 1034.3 1034.3 0.0
29/07:00am 9.4 7.1 4.8 73 2.0 WNW 6 6 3 3 1033.9 1033.9 0.0
29/06:30am 9.6 7.4 5.2 74 2.0 W 6 7 3 4 1033.6 1033.6 0.0
29/06:00am 10.1 8.0 5.9 75 1.9 W 6 9 3 5 1033.4 1033.4 0.0
29/05:30am 9.9 7.7 6.1 77 1.8 W 7 9 4 5 1033.3 1033.3 0.0
29/05:00am 9.6 7.0 6.3 80 1.5 W 9 11 5 6 1033.0 1033.0 0.0
29/04:30am 9.2 7.0 6.1 81 1.4 W 7 9 4 5 1032.8 1032.8 0.0
29/04:00am 8.9 6.7 5.5 79 1.5 WSW 6 7 3 4 1032.9 1032.9 0.0
29/03:30am 9.0 6.9 5.9 81 1.4 W 6 9 3 5 1032.8 1032.8 0.0
29/03:00am 9.1 6.9 6.0 81 1.4 W 7 9 4 5 1032.9 1032.9 0.0
29/02:30am 9.3 7.6 6.0 80 1.5 W 4 6 2 3 1033.0 1033.0 0.0
29/02:00am 9.2 7.1 5.9 80 1.5 WSW 6 7 3 4 1033.0 1033.0 0.0
29/01:30am 9.0 6.9 5.7 80 1.5 WSW 6 7 3 4 1033.1 1033.1 0.0
29/01:00am 9.4 7.1 5.8 78 1.6 W 7 11 4 6 1033.0 1033.0 0.0
29/12:30am 10.4 9.1 6.0 74 2.0 WSW 2 6 1 3 1033.0 1033.0 0.0
29/12:00am 10.8 10.0 6.6 75 2.0 CALM 0 0 0 0 1033.0 1033.0 0.0
 
Date/Time
EST
Tmp

°C
App
Tmp
°C
Dew
Point
°C
Rel
Hum
%
Delta-T

°C
Wind Press
QNH
hPa
Press
MSL
hPa
Rain
since
9 am
mm
Dir
 
Spd
km/h
Gust
km/h
Spd
kts
Gust
kts
28/11:30pm 10.8 9.6 6.6 75 2.0 WSW 2 2 1 1 1033.0 1033.0 0.0
28/11:00pm 10.9 9.4 7.0 77 1.8 WSW 4 6 2 3 1032.9 1032.9 0.0
28/10:30pm 10.8 9.3 6.6 75 2.0 WSW 4 6 2 3 1033.1 1033.1 0.0
28/10:00pm 11.2 9.4 7.1 76 1.9 W 6 7 3 4 1033.2 1033.2 0.0
28/09:30pm 11.2 9.4 7.1 76 2.0 W 6 7 3 4 1033.2 1033.2 0.0
28/09:00pm 10.9 9.5 7.2 78 1.8 WNW 4 6 2 3 1033.1 1033.1 0.0
28/08:30pm 10.7 9.6 7.0 78 1.8 W 2 6 1 3 1033.0 1033.0 0.0
28/08:00pm 10.9 9.3 6.5 74 2.1 W 4 6 2 3 1032.8 1032.8 0.0
28/07:30pm 11.0 9.4 6.4 73 2.2 W 4 4 2 2 1032.8 1032.8 0.0
28/07:00pm 11.4 9.8 6.5 72 2.3 W 4 6 2 3 1032.6 1032.6 0.0
28/06:30pm 11.5 9.9 6.4 71 2.4 SSW 4 7 2 4 1032.2 1032.2 0.0
28/06:00pm 12.7 11.4 7.8 72 2.4 SE 4 7 2 4 1031.8 1031.8 0.0
28/05:30pm 12.4 11.3 6.7 68 2.7 SSE 2 6 1 3 1031.3 1031.3 0.0
28/05:00pm 13.0 11.5 6.6 65 3.0 SE 4 6 2 3 1030.9 1030.9 0.0
28/04:30pm 13.9 12.0 6.5 61 3.6 SE 6 9 3 5 1030.7 1030.7 0.0
28/04:00pm 14.6 13.1 6.7 59 3.8 SE 4 7 2 4 1030.5 1030.5 0.0
28/03:30pm 14.9 12.8 6.0 55 4.3 SSE 6 9 3 5 1030.3 1030.3 0.0
28/03:00pm 15.1 12.8 5.6 53 4.5 SSE 7 11 4 6 1030.3 1030.3 0.0
28/02:30pm 15.5 13.3 5.1 50 4.9 SE 6 9 3 5 1030.3 1030.3 0.0
28/02:00pm 15.5 12.8 3.6 45 5.4 SSE 7 11 4 6 1030.4 1030.4 0.0
28/01:30pm 16.1 14.4 5.7 50 5.0 SSE 4 7 2 4 1030.4 1030.4 0.0
28/01:00pm 15.8 12.2 5.1 49 5.0 S 13 19 7 10 1030.7 1030.7 0.0
28/12:30pm 16.1 13.3 3.2 42 5.9 SSW 7 17 4 9 1030.9 1030.9 0.0
28/12:00pm 15.9 12.9 2.3 40 6.0 WSW 7 13 4 7 1031.3 1031.3 0.0
28/11:30am 15.3 12.3 2.1 41 5.9 WSW 7 15 4 8 1031.7 1031.7 0.0
28/11:00am 15.2 12.1 3.4 45 5.3 WSW 9 19 5 10 1031.9 1031.9 0.0
28/10:30am 14.7 11.0 2.6 44 5.4 W 11 17 6 9 1032.1 1032.1 0.0
28/10:00am 14.4 11.2 2.9 46 5.1 W 9 19 5 10 1032.2 1032.2 0.0
28/09:30am 13.4 9.7 2.6 48 4.8 W 11 19 6 10 1031.9 1031.9 0.0
28/09:00am 12.5 9.2 2.7 51 4.3 W 9 20 5 11 1031.7 1031.7 0.0
28/08:30am 11.3 7.5 1.8 52 4.0 W 11 17 6 9 1031.5 1031.5 0.0
28/08:00am 10.2 6.3 1.3 54 3.7 WNW 11 19 6 10 1031.3 1031.3 0.0
28/07:30am 9.3 5.0 1.0 56 3.4 WNW 13 20 7 11 1030.8 1030.8 0.0
28/07:00am 8.6 4.6 0.8 58 3.1 WNW 11 19 6 10 1030.4 1030.4 0.0
28/06:30am 8.6 4.2 0.6 57 3.2 WNW 13 19 7 10 1029.9 1029.9 0.0
28/06:00am 8.7 4.7 0.7 57 3.2 WNW 11 19 6 10 1029.7 1029.7 0.0
28/05:30am 9.0 5.0 0.7 56 3.4 WNW 11 20 6 11 1029.3 1029.3 0.0
28/05:00am 8.8 4.8 0.8 57 3.2 WNW 11 20 6 11 1029.1 1029.1 0.0
28/04:30am 8.8 4.8 0.5 56 3.3 WNW 11 19 6 10 1028.8 1028.8 0.0
28/04:00am 9.0 5.0 0.7 56 3.3 WNW 11 19 6 10 1028.6 1028.6 0.0
28/03:30am 8.7 5.1 0.7 57 3.2 WNW 9 15 5 8 1028.4 1028.4 0.0
28/03:00am 8.9 4.5 0.6 56 3.3 WNW 13 20 7 11 1028.3 1028.3 0.0
28/02:30am 8.9 4.5 0.6 56 3.3 WNW 13 22 7 12 1028.3 1028.3 0.0
28/02:00am 9.0 4.7 0.7 56 3.3 WNW 13 22 7 12 1028.4 1028.4 0.0
28/01:30am 9.2 4.8 0.4 54 3.5 W 13 24 7 13 1028.3 1028.3 0.0
28/01:00am 9.3 4.5 0.2 53 3.6 WNW 15 24 8 13 1027.9 1027.9 0.0
28/12:30am 9.3 4.9 0.2 53 3.7 W 13 24 7 13 1027.8 1027.8 0.0
28/12:00am 9.3 4.9 0.2 53 3.6 WNW 13 24 7 13 1027.8 1027.8 0.0
 
Date/Time
EST
Tmp

°C
App
Tmp
°C
Dew
Point
°C
Rel
Hum
%
Delta-T

°C
Wind Press
QNH
hPa
Press
MSL
hPa
Rain
since
9 am
mm
Dir
 
Spd
km/h
Gust
km/h
Spd
kts
Gust
kts
27/11:30pm 9.2 4.8 0.1 53 3.6 WNW 13 24 7 13 1027.9 1027.9 0.0
27/11:00pm 9.4 4.2 0.3 53 3.6 W 17 30 9 16 1027.7 1027.7 0.0
27/10:30pm 9.6 4.8 0.2 52 3.8 W 15 28 8 15 1027.7 1027.7 0.0
27/10:00pm 9.7 4.9 0.3 52 3.8 WNW 15 24 8 13 1027.6 1027.6 0.0
27/09:30pm 9.8 5.3 -0.1 50 4.0 WNW 13 22 7 12 1027.4 1027.4 0.0
27/09:00pm 10.1 5.3 0.2 50 4.0 WNW 15 26 8 14 1027.1 1027.1 0.0
27/08:30pm 10.1 5.7 0.4 51 3.9 WNW 13 22 7 12 1027.1 1027.1 0.0
27/08:00pm 10.4 6.0 0.2 49 4.1 WNW 13 20 7 11 1026.6 1026.6 0.0
27/07:30pm 10.4 6.4 0.7 51 4.0 WNW 11 20 6 11 1026.3 1026.3 0.0
27/07:00pm 10.3 6.5 1.7 55 3.6 WNW 11 17 6 9 1026.1 1026.1 0.0
27/06:30pm 10.2 6.8 2.1 57 3.4 NW 9 13 5 7 1025.4 1025.5 0.0

Latest Capital City Observations: Canberra | Sydney | Melbourne | Brisbane | Adelaide | Perth | Hobart | Darwin

Other Formats:

Comma delimited format used in spreadsheet applications
http://www.bom.gov.au/fwo/IDN60903/IDN60903.94938.axf

JavaScript Object Notation format (JSON) in row-major order
http://www.bom.gov.au/fwo/IDN60903/IDN60903.94938.json